Time;durP1;ratioP1;P1;durP2;ratioP2;P2;SDS_P1;SDS_P2;PMS_P1;PMS_P2;Temp;Humidity;BMP_temperature;BMP_pressure;BME280_temperature;BME280_humidity;BME280_pressure;Samples;Min_cycle;Max_cycle;Signal;HPM_P1;HPM_P2
2021/08/10 00:01:53;;;;;;;10.87;6.77;;;14.40;98.30;;;;;;5053098;28;20088;-66
2021/08/10 00:04:19;;;;;;;10.33;7.07;;;14.50;98.30;;;;;;5053003;28;20044;-66
2021/08/10 00:06:45;;;;;;;9.00;7.53;;;14.50;98.30;;;;;;5052290;28;20143;-66
2021/08/10 00:09:10;;;;;;;11.73;7.60;;;14.50;98.30;;;;;;5052827;28;20045;-66
2021/08/10 00:11:36;;;;;;;10.20;7.30;;;14.40;98.30;;;;;;5052332;28;20045;-66
2021/08/10 00:14:02;;;;;;;9.63;7.00;;;14.50;98.40;;;;;;5052945;28;20045;-66
2021/08/10 00:16:27;;;;;;;9.50;7.10;;;14.50;98.40;;;;;;5052725;28;20057;-65
2021/08/10 00:18:53;;;;;;;11.70;7.57;;;14.40;98.80;;;;;;5052296;28;20055;-66
2021/08/10 00:21:19;;;;;;;12.60;7.47;;;14.50;98.50;;;;;;5052648;28;20480;-66
2021/08/10 00:23:45;;;;;;;10.77;7.17;;;14.50;98.50;;;;;;5052700;28;20052;-66
2021/08/10 00:26:13;;;;;;;11.17;8.00;;;14.40;98.50;;;;;;5051628;28;20053;-66
2021/08/10 00:28:39;;;;;;;10.37;7.70;;;14.40;98.50;;;;;;5052923;28;20504;-65
2021/08/10 00:31:05;;;;;;;11.73;8.30;;;14.40;98.50;;;;;;5052484;28;20041;-65
2021/08/10 00:33:30;;;;;;;10.20;7.70;;;14.40;98.60;;;;;;5051837;28;20489;-66
2021/08/10 00:35:56;;;;;;;9.37;7.50;;;14.40;98.60;;;;;;5052547;28;20048;-65
2021/08/10 00:38:22;;;;;;;10.47;7.90;;;14.40;98.60;;;;;;5052186;28;20056;-66
2021/08/10 00:40:49;;;;;;;11.57;7.83;;;14.50;98.70;;;;;;5051609;28;20045;-66
2021/08/10 00:43:35;;;;;;;11.50;7.30;;;14.50;98.70;;;;;;5051914;28;20486;-66
2021/08/10 00:46:03;;;;;;;12.70;7.50;;;14.50;98.70;;;;;;5052106;28;20501;-66
2021/08/10 00:48:28;;;;;;;13.57;7.77;;;14.50;98.80;;;;;;5051788;28;20060;-66
2021/08/10 00:50:55;;;;;;;10.23;7.60;;;14.50;98.80;;;;;;5052447;28;20482;-65
2021/08/10 00:53:22;;;;;;;11.97;8.20;;;14.50;98.80;;;;;;5051880;28;20095;-66
2021/08/10 00:55:48;;;;;;;12.17;7.57;;;14.50;98.80;;;;;;5051622;28;20088;-65
2021/08/10 00:58:14;;;;;;;12.57;7.90;;;14.50;98.80;;;;;;5051749;28;20068;-66
2021/08/10 01:00:40;;;;;;;11.57;7.40;;;14.50;98.80;;;;;;5052179;28;20045;-65
2021/08/10 01:03:06;;;;;;;14.27;8.07;;;14.60;98.90;;;;;;5050976;28;20049;-66
2021/08/10 01:05:32;;;;;;;10.87;7.87;;;14.60;98.90;;;;;;5051926;28;20118;-66
2021/08/10 01:08:10;;;;;;;10.07;7.97;;;14.60;98.90;;;;;;5051078;28;20071;-65
2021/08/10 01:10:43;;;;;;;12.10;7.93;;;14.60;98.90;;;;;;5051451;28;20155;-66
2021/08/10 01:13:24;;;;;;;16.33;9.40;;;14.60;99.00;;;;;;5051866;28;20048;-66
2021/08/10 01:16:17;;;;;;;12.45;8.68;;;14.60;99.00;;;;;;5051164;28;20131;-66
2021/08/10 01:19:01;;;;;;;12.17;8.07;;;14.60;99.00;;;;;;5052257;28;20045;-66
2021/08/10 01:21:36;;;;;;;12.90;9.10;;;14.70;99.00;;;;;;5051914;28;20045;-66
2021/08/10 01:24:21;;;;;;;10.77;9.50;;;14.70;99.00;;;;;;5050877;28;20097;-65
2021/08/10 01:27:11;;;;;;;10.67;7.57;;;14.70;99.10;;;;;;5051632;28;20073;-65
2021/08/10 01:30:00;;;;;;;12.13;8.50;;;14.70;99.10;;;;;;5051354;28;20045;-65
2021/08/10 01:32:32;;;;;;;14.50;9.17;;;14.70;99.10;;;;;;5051687;28;20106;-65
2021/08/10 01:34:58;;;;;;;13.77;9.13;;;14.70;99.10;;;;;;5051747;28;20056;-66
2021/08/10 01:37:27;;;;;;;17.53;9.13;;;14.70;99.10;;;;;;5050551;28;20051;-65
2021/08/10 01:39:56;;;;;;;16.67;9.60;;;14.70;99.10;;;;;;5051719;28;20041;-66
2021/08/10 01:42:23;;;;;;;12.93;8.80;;;14.70;99.10;;;;;;5051183;28;20640;-66
2021/08/10 01:44:49;;;;;;;13.80;9.40;;;14.70;99.10;;;;;;5050928;28;20085;-65
2021/08/10 01:47:15;;;;;;;15.17;10.00;;;14.70;99.20;;;;;;5051305;28;20043;-66
2021/08/10 01:49:42;;;;;;;12.83;8.97;;;14.70;99.20;;;;;;5051376;28;20037;-66
2021/08/10 01:52:13;;;;;;;11.63;9.03;;;14.70;99.20;;;;;;5050682;28;20048;-66
2021/08/10 01:54:41;;;;;;;12.90;9.60;;;14.70;99.30;;;;;;5051845;28;20390;-65
2021/08/10 01:57:09;;;;;;;14.83;9.40;;;14.80;99.30;;;;;;5050594;28;20063;-65
2021/08/10 01:59:35;;;;;;;14.63;9.70;;;14.80;99.30;;;;;;5051481;28;20124;-65
2021/08/10 02:02:02;;;;;;;14.33;9.17;;;14.80;99.30;;;;;;5051220;28;20048;-65
2021/08/10 02:04:31;;;;;;;13.07;8.80;;;14.80;99.30;;;;;;5050539;28;20448;-66
2021/08/10 02:06:57;;;;;;;16.27;8.93;;;14.80;99.30;;;;;;5051636;28;20137;-66
2021/08/10 02:09:23;;;;;;;17.23;9.33;;;14.70;99.20;;;;;;5051233;28;20128;-66
2021/08/10 02:11:52;;;;;;;12.50;8.50;;;14.80;99.30;;;;;;5050709;28;20049;-66
2021/08/10 02:14:24;;;;;;;12.00;9.30;;;14.80;99.30;;;;;;5051150;28;20052;-66
2021/08/10 02:16:50;;;;;;;11.68;8.25;;;14.80;99.60;;;;;;5051035;28;20068;-65
2021/08/10 02:19:17;;;;;;;16.23;8.40;;;14.80;99.20;;;;;;5050396;28;20400;-66
2021/08/10 02:21:46;;;;;;;13.60;8.90;;;14.80;99.20;;;;;;5054378;28;20084;-66
2021/08/10 02:24:24;;;;;;;14.87;8.27;;;14.80;99.20;;;;;;5054960;28;20128;-66
2021/08/10 02:26:58;;;;;;;13.03;8.43;;;14.70;99.20;;;;;;5054270;28;20509;-66
2021/08/10 02:29:28;;;;;;;11.50;8.20;;;14.70;99.20;;;;;;5054520;28;20686;-66
2021/08/10 02:31:54;;;;;;;12.03;8.90;;;14.70;99.20;;;;;;5055006;28;20048;-66
2021/08/10 02:34:21;;;;;;;12.73;8.50;;;14.70;99.20;;;;;;5053855;28;20045;-65
2021/08/10 02:36:54;;;;;;;13.17;7.90;;;14.70;99.20;;;;;;5054881;28;20379;-65
2021/08/10 02:39:20;;;;;;;15.50;8.47;;;14.70;99.20;;;;;;5053946;28;20077;-65
2021/08/10 02:41:46;;;;;;;17.23;9.03;;;14.70;99.20;;;;;;5054545;28;20093;-65
2021/08/10 02:44:14;;;;;;;11.73;8.23;;;14.70;99.20;;;;;;5054570;28;20049;-66
2021/08/10 02:46:40;;;;;;;10.70;8.50;;;14.70;99.10;;;;;;5054159;28;20045;-65
2021/08/10 02:49:09;;;;;;;11.43;8.57;;;14.70;99.10;;;;;;5054161;28;20417;-65
2021/08/10 02:51:35;;;;;;;18.53;9.27;;;14.70;99.10;;;;;;5054548;28;20045;-66
2021/08/10 02:54:01;;;;;;;11.10;7.70;;;14.70;99.10;;;;;;5053512;28;20052;-65
2021/08/10 02:56:38;;;;;;;15.90;7.97;;;14.70;99.10;;;;;;5054494;28;20095;-65
2021/08/10 02:59:13;;;;;;;11.80;8.40;;;14.70;99.10;;;;;;5054458;28;20049;-65
2021/08/10 03:01:47;;;;;;;14.63;7.37;;;14.70;99.10;;;;;;5054083;28;20045;-65
2021/08/10 03:04:14;;;;;;;12.77;9.00;;;14.70;99.10;;;;;;5054422;28;20063;-65
2021/08/10 03:06:40;;;;;;;14.30;8.50;;;14.70;99.10;;;;;;5054343;28;20045;-65
2021/08/10 03:09:09;;;;;;;10.00;7.87;;;14.60;99.00;;;;;;5053279;28;20056;-66
2021/08/10 03:11:39;;;;;;;9.83;7.47;;;14.70;99.00;;;;;;5054424;28;20124;-65
2021/08/10 03:14:08;;;;;;;12.80;7.83;;;14.70;99.00;;;;;;5053955;28;20041;-64
2021/08/10 03:16:35;;;;;;;12.43;7.47;;;14.70;99.00;;;;;;5053371;28;20049;-66
2021/08/10 03:19:04;;;;;;;13.83;7.50;;;14.70;99.00;;;;;;5054140;28;20044;-66
2021/08/10 03:21:30;;;;;;;15.93;7.73;;;14.70;99.00;;;;;;5053410;28;20068;-65
2021/08/10 03:23:57;;;;;;;12.80;7.63;;;14.70;98.90;;;;;;5054110;28;20076;-66
2021/08/10 03:26:25;;;;;;;11.67;7.93;;;14.70;98.90;;;;;;5053899;28;20048;-66
2021/08/10 03:28:52;;;;;;;12.87;7.80;;;14.70;98.90;;;;;;5053277;28;20465;-65
2021/08/10 03:31:18;;;;;;;12.63;7.87;;;14.70;98.90;;;;;;5053665;28;20049;-65
2021/08/10 03:33:45;;;;;;;10.07;7.07;;;14.70;98.90;;;;;;5053127;28;20493;-65
2021/08/10 03:36:11;;;;;;;10.03;7.20;;;14.70;98.80;;;;;;5053177;28;20076;-66
2021/08/10 03:38:38;;;;;;;13.47;7.07;;;14.70;98.80;;;;;;5053847;28;20048;-65
2021/08/10 03:41:05;;;;;;;13.67;8.10;;;14.70;98.80;;;;;;5053743;28;20045;-65
2021/08/10 03:43:34;;;;;;;13.73;7.40;;;14.80;98.80;;;;;;5052928;28;20056;-66
2021/08/10 03:46:04;;;;;;;11.03;7.27;;;14.80;98.80;;;;;;5053359;28;20119;-65
2021/08/10 03:48:37;;;;;;;14.37;7.27;;;14.80;98.80;;;;;;5053515;28;20049;-66
2021/08/10 03:51:03;;;;;;;13.03;7.43;;;14.80;98.80;;;;;;5052457;28;20426;-65
2021/08/10 03:53:31;;;;;;;14.97;7.87;;;14.80;98.80;;;;;;5053760;28;20132;-65
2021/08/10 03:55:59;;;;;;;14.33;7.90;;;14.80;98.80;;;;;;5053480;28;20504;-65
2021/08/10 03:58:29;;;;;;;13.67;8.20;;;14.80;98.80;;;;;;5052838;28;20477;-65
2021/08/10 04:00:55;;;;;;;17.87;9.10;;;14.80;98.80;;;;;;5053141;28;20382;-65
2021/08/10 04:03:22;;;;;;;14.00;8.63;;;14.90;98.80;;;;;;5053024;28;20049;-65
2021/08/10 04:05:49;;;;;;;13.70;8.23;;;14.80;98.80;;;;;;5052610;28;20053;-65
2021/08/10 04:08:16;;;;;;;10.20;7.53;;;14.80;98.80;;;;;;5052884;28;20040;-65
2021/08/10 04:10:47;;;;;;;11.17;7.83;;;14.80;98.80;;;;;;5052702;28;20076;-65
2021/08/10 04:13:13;;;;;;;12.88;8.20;;;14.80;98.80;;;;;;5052814;28;20049;-65
2021/08/10 04:15:44;;;;;;;14.53;9.40;;;14.80;98.80;;;;;;5053119;28;20060;-65
2021/08/10 04:18:19;;;;;;;17.63;9.20;;;14.80;98.80;;;;;;5051678;28;20061;-65
2021/08/10 04:20:52;;;;;;;15.13;8.90;;;14.80;98.90;;;;;;5052776;28;20103;-65
2021/08/10 04:23:19;;;;;;;14.53;9.37;;;14.70;98.90;;;;;;5052398;28;20489;-65
2021/08/10 04:25:45;;;;;;;12.87;8.67;;;14.80;98.90;;;;;;5051829;28;20486;-65
2021/08/10 04:28:12;;;;;;;11.30;8.63;;;14.80;98.90;;;;;;5052499;28;20068;-65
2021/08/10 04:30:39;;;;;;;12.40;8.80;;;14.80;98.90;;;;;;5052933;28;20051;-64
2021/08/10 04:33:06;;;;;;;10.13;8.10;;;14.80;99.00;;;;;;5051545;28;20414;-65
2021/08/10 04:35:33;;;;;;;11.87;8.27;;;14.80;99.00;;;;;;5052799;28;20056;-65
2021/08/10 04:37:59;;;;;;;15.77;8.70;;;14.80;99.00;;;;;;5052708;28;20045;-65
2021/08/10 04:40:28;;;;;;;13.70;8.70;;;14.90;99.00;;;;;;5051608;28;20508;-65
2021/08/10 04:42:55;;;;;;;16.23;9.03;;;14.90;98.90;;;;;;5052615;28;20136;-65
2021/08/10 04:45:21;;;;;;;13.53;9.20;;;14.90;99.20;;;;;;5051326;28;20068;-65
2021/08/10 04:47:46;;;;;;;11.63;8.70;;;14.90;98.80;;;;;;5052055;28;20478;-65
2021/08/10 04:50:15;;;;;;;16.23;8.77;;;14.90;98.70;;;;;;5052013;28;20505;-65
2021/08/10 04:52:41;;;;;;;16.63;8.60;;;15.00;98.70;;;;;;5052351;28;20071;-65
2021/08/10 04:55:07;;;;;;;15.90;8.63;;;15.00;98.80;;;;;;5050802;28;20056;-65
2021/08/10 04:57:33;;;;;;;12.27;8.07;;;15.00;98.70;;;;;;5051427;28;20056;-65
2021/08/10 05:00:00;;;;;;;13.57;8.13;;;15.00;98.70;;;;;;5051446;28;20053;-65
2021/08/10 05:02:26;;;;;;;14.07;8.77;;;15.00;98.70;;;;;;5051994;28;20049;-65
2021/08/10 05:04:52;;;;;;;13.77;8.57;;;15.00;98.70;;;;;;5052277;28;20095;-64
2021/08/10 05:07:18;;;;;;;13.10;8.07;;;15.00;98.80;;;;;;5051289;28;20060;-65
2021/08/10 05:09:43;;;;;;;11.93;8.17;;;15.00;98.80;;;;;;5052014;28;20072;-65
2021/08/10 05:12:09;;;;;;;11.80;8.33;;;15.00;98.70;;;;;;5051975;28;20100;-64
2021/08/10 05:14:35;;;;;;;14.17;8.33;;;15.00;98.70;;;;;;5051121;28;20049;-64
2021/08/10 05:17:01;;;;;;;11.07;8.33;;;15.00;98.80;;;;;;5051363;28;20048;-65
2021/08/10 05:19:26;;;;;;;14.27;8.30;;;15.00;98.80;;;;;;5043909;28;20045;-65
2021/08/10 05:21:52;;;;;;;10.70;8.27;;;15.00;98.80;;;;;;5047378;28;20500;-65
2021/08/10 05:24:18;;;;;;;12.33;8.07;;;15.00;98.80;;;;;;5047692;28;20052;-65
2021/08/10 05:26:43;;;;;;;17.67;8.73;;;15.00;98.90;;;;;;5048754;28;20072;-66
2021/08/10 05:29:09;;;;;;;14.70;8.80;;;15.00;98.80;;;;;;5046898;28;20484;-65
2021/08/10 05:31:35;;;;;;;14.37;8.37;;;15.00;98.80;;;;;;5039682;28;20045;-65
2021/08/10 05:34:00;;;;;;;16.63;8.97;;;15.00;98.90;;;;;;5038622;28;20596;-65
2021/08/10 05:36:26;;;;;;;13.73;8.73;;;15.00;98.90;;;;;;5035516;28;20082;-65
2021/08/10 05:38:54;;;;;;;14.20;8.13;;;15.00;98.90;;;;;;5044436;28;20037;-65
2021/08/10 05:41:20;;;;;;;14.40;8.57;;;15.10;99.00;;;;;;5041659;28;20220;-64
2021/08/10 05:43:47;;;;;;;12.57;7.60;;;15.10;99.00;;;;;;5047031;28;20045;-65
2021/08/10 05:46:13;;;;;;;12.07;7.77;;;15.10;99.00;;;;;;5047765;28;20048;-65
2021/08/10 05:48:38;;;;;;;13.77;8.77;;;15.10;99.00;;;;;;5048240;28;20497;-68
2021/08/10 05:51:05;;;;;;;13.47;8.90;;;15.10;99.40;;;;;;5046571;28;20071;-66
2021/08/10 05:53:32;;;;;;;12.53;9.17;;;15.10;99.00;;;;;;5048690;28;20053;-65
2021/08/10 05:55:58;;;;;;;12.00;9.07;;;15.10;99.00;;;;;;5049966;28;20049;-66
2021/08/10 05:58:24;;;;;;;11.40;8.87;;;15.10;99.10;;;;;;5051076;28;20178;-66
2021/08/10 06:00:54;;;;;;;15.37;9.90;;;15.10;99.10;;;;;;5052552;28;20056;-65
2021/08/10 06:03:19;;;;;;;14.13;10.10;;;15.20;99.20;;;;;;5048598;28;20303;-65
2021/08/10 06:05:45;;;;;;;13.47;10.30;;;15.30;99.20;;;;;;5038611;28;20410;-65
2021/08/10 06:08:11;;;;;;;13.43;10.13;;;15.30;99.20;;;;;;5031486;28;20077;-65
2021/08/10 06:10:37;;;;;;;14.30;9.80;;;15.40;99.30;;;;;;5031883;28;20087;-65
2021/08/10 06:13:03;;;;;;;13.60;9.57;;;15.40;99.30;;;;;;5031541;28;20052;-66
2021/08/10 06:15:29;;;;;;;16.53;10.93;;;15.50;99.30;;;;;;5031742;28;20057;-68
2021/08/10 06:17:55;;;;;;;16.13;11.23;;;15.50;99.30;;;;;;5031111;28;20514;-67
2021/08/10 06:20:22;;;;;;;15.87;12.00;;;15.60;99.20;;;;;;5032156;28;20049;-68
2021/08/10 06:22:48;;;;;;;16.53;11.23;;;15.60;99.20;;;;;;5030890;28;20045;-68
2021/08/10 06:25:14;;;;;;;14.77;11.87;;;15.70;99.20;;;;;;5043563;28;20057;-66
2021/08/10 06:27:40;;;;;;;16.07;11.73;;;15.70;99.20;;;;;;5052092;28;20052;-66
2021/08/10 06:30:07;;;;;;;14.80;12.23;;;15.80;99.50;;;;;;5051479;28;20056;-67
2021/08/10 06:32:33;;;;;;;13.47;12.17;;;15.80;99.10;;;;;;5050666;28;20049;-66
2021/08/10 06:34:59;;;;;;;15.47;11.73;;;15.90;98.90;;;;;;5051159;28;20566;-65
2021/08/10 06:37:25;;;;;;;13.43;11.67;;;15.90;98.80;;;;;;5046269;28;20223;-65
2021/08/10 06:39:50;;;;;;;14.03;12.10;;;15.90;98.80;;;;;;5046246;28;20486;-65
2021/08/10 06:42:22;;;;;;;14.67;12.67;;;15.90;98.80;;;;;;5050912;28;20045;-65
2021/08/10 06:44:49;;;;;;;13.20;10.43;;;15.90;98.70;;;;;;5051031;28;20076;-65
2021/08/10 06:47:15;;;;;;;13.33;11.93;;;15.90;98.60;;;;;;5050847;28;20132;-66
2021/08/10 06:49:41;;;;;;;11.83;10.63;;;15.90;98.60;;;;;;5050125;28;20049;-66
2021/08/10 06:52:08;;;;;;;15.57;11.33;;;15.90;98.50;;;;;;5050967;28;20060;-66
2021/08/10 06:54:34;;;;;;;13.27;11.87;;;15.90;98.60;;;;;;5050355;28;20052;-66
2021/08/10 06:57:10;;;;;;;13.80;11.23;;;15.90;98.60;;;;;;5050145;28;20098;-65
2021/08/10 06:59:36;;;;;;;12.40;10.23;;;15.90;98.60;;;;;;5039831;28;20490;-66
2021/08/10 07:02:09;;;;;;;13.03;11.23;;;15.90;98.60;;;;;;5038539;28;20085;-65
2021/08/10 07:04:36;;;;;;;12.80;10.80;;;16.00;98.60;;;;;;5041641;28;20115;-65
2021/08/10 07:07:03;;;;;;;13.30;9.83;;;16.00;98.60;;;;;;5037139;28;20041;-66
2021/08/10 07:09:28;;;;;;;11.23;9.33;;;16.10;98.60;;;;;;5039191;28;20107;-65
2021/08/10 07:11:54;;;;;;;13.53;10.83;;;16.20;98.50;;;;;;5040884;28;20049;-66
2021/08/10 07:14:20;;;;;;;11.07;9.00;;;16.20;98.40;;;;;;5038552;28;20111;-66
2021/08/10 07:16:46;;;;;;;10.17;8.67;;;16.30;98.40;;;;;;5039514;28;20088;-66
2021/08/10 07:19:13;;;;;;;11.93;9.70;;;16.30;98.20;;;;;;5040631;28;20080;-66
2021/08/10 07:21:39;;;;;;;14.83;9.87;;;16.30;98.10;;;;;;5038287;28;20041;-67
2021/08/10 07:24:05;;;;;;;11.13;9.17;;;16.20;98.00;;;;;;5039732;28;20052;-67
2021/08/10 07:26:32;;;;;;;13.17;9.40;;;16.20;98.10;;;;;;5040011;28;20038;-67
2021/08/10 07:28:58;;;;;;;12.77;9.80;;;16.10;98.00;;;;;;5037958;28;20128;-68
2021/08/10 07:31:23;;;;;;;12.80;9.70;;;16.00;98.10;;;;;;5039828;28;20454;-68
2021/08/10 07:33:50;;;;;;;12.83;9.57;;;15.90;98.10;;;;;;5039881;28;20079;-68
2021/08/10 07:36:16;;;;;;;12.77;10.17;;;15.90;98.30;;;;;;5037497;28;20037;-68
2021/08/10 07:38:42;;;;;;;11.77;10.27;;;15.80;98.30;;;;;;5039493;28;20462;-66
2021/08/10 07:41:07;;;;;;;12.57;9.20;;;15.80;98.50;;;;;;5039832;28;20128;-66
2021/08/10 07:43:33;;;;;;;10.70;8.90;;;15.80;98.50;;;;;;5038253;28;20049;-68
2021/08/10 07:45:59;;;;;;;14.30;9.93;;;15.70;98.50;;;;;;5030341;28;20080;-68
2021/08/10 07:48:25;;;;;;;11.93;8.50;;;15.70;98.60;;;;;;5030627;28;20049;-67
2021/08/10 07:50:50;;;;;;;10.30;7.87;;;15.70;98.70;;;;;;5029319;28;20057;-67
2021/08/10 07:53:19;;;;;;;10.27;8.10;;;15.60;98.60;;;;;;5029745;28;20045;-66
2021/08/10 07:55:46;;;;;;;10.60;8.50;;;15.60;98.60;;;;;;5029280;28;20045;-67
2021/08/10 07:58:11;;;;;;;13.77;8.50;;;15.60;98.60;;;;;;5029899;28;20049;-67
2021/08/10 08:00:37;;;;;;;10.00;7.43;;;15.50;98.70;;;;;;5029151;28;20061;-67
2021/08/10 08:03:03;;;;;;;11.93;7.50;;;15.50;98.70;;;;;;5028283;28;20541;-65
2021/08/10 08:05:29;;;;;;;9.67;7.60;;;15.50;98.70;;;;;;5029679;28;20076;-65
2021/08/10 08:07:55;;;;;;;7.97;5.63;;;15.50;98.70;;;;;;5029628;28;20508;-67
2021/08/10 08:10:20;;;;;;;8.03;7.13;;;15.40;98.60;;;;;;5028648;28;20199;-67
2021/08/10 08:12:46;;;;;;;12.20;7.50;;;15.40;98.50;;;;;;5029432;28;20055;-68
2021/08/10 08:15:12;;;;;;;10.93;7.63;;;15.30;98.70;;;;;;5029509;28;20674;-67
2021/08/10 08:17:38;;;;;;;9.20;8.23;;;15.40;98.90;;;;;;5028300;28;20061;-69
2021/08/10 08:20:04;;;;;;;10.50;7.03;;;15.50;99.00;;;;;;5046773;28;20049;-69
2021/08/10 08:22:30;;;;;;;10.10;7.13;;;15.50;99.10;;;;;;5049027;28;20080;-69
2021/08/10 08:24:58;;;;;;;10.93;8.03;;;15.60;99.00;;;;;;5049114;28;20051;-70
2021/08/10 08:27:23;;;;;;;13.87;9.30;;;15.60;99.00;;;;;;5048821;28;20053;-68
2021/08/10 08:29:49;;;;;;;11.47;8.77;;;15.70;99.10;;;;;;5048812;28;20470;-69
2021/08/10 08:32:14;;;;;;;11.93;10.73;;;15.80;99.20;;;;;;5048329;28;20055;-68
2021/08/10 08:34:40;;;;;;;13.20;11.77;;;15.90;99.30;;;;;;5049342;28;20049;-68
2021/08/10 08:37:06;;;;;;;16.97;13.37;;;16.00;99.40;;;;;;5048507;28;20055;-68
2021/08/10 08:39:32;;;;;;;17.40;14.67;;;16.10;99.50;;;;;;5047709;28;20733;-68
2021/08/10 08:42:02;;;;;;;20.37;15.97;;;16.20;99.80;;;;;;5049072;28;20136;-67
2021/08/10 08:44:34;;;;;;;18.43;16.50;;;16.40;99.90;;;;;;5048027;28;20139;-67
2021/08/10 08:47:06;;;;;;;20.10;17.93;;;16.50;99.90;;;;;;5047467;28;20075;-67
2021/08/10 08:49:33;;;;;;;19.90;17.77;;;16.70;99.90;;;;;;5048214;28;20067;-68
2021/08/10 08:52:01;;;;;;;21.50;19.27;;;16.90;99.90;;;;;;5048561;28;20127;-68
2021/08/10 08:54:28;;;;;;;23.57;18.80;;;17.00;99.90;;;;;;5047819;28;20049;-67
2021/08/10 08:56:54;;;;;;;22.30;17.23;;;17.10;99.90;;;;;;5048284;28;20049;-68
2021/08/10 08:59:22;;;;;;;20.87;17.47;;;17.20;99.90;;;;;;5047242;28;20107;-68
2021/08/10 09:01:49;;;;;;;19.53;16.63;;;17.30;99.60;;;;;;5049085;28;20045;-67
2021/08/10 09:04:16;;;;;;;21.57;17.73;;;17.40;99.40;;;;;;5047426;28;20053;-68
2021/08/10 09:06:42;;;;;;;22.67;17.37;;;17.40;99.20;;;;;;5047222;28;20404;-68
2021/08/10 09:09:27;;;;;;;25.57;19.27;;;17.40;99.10;;;;;;5048205;28;20053;-67
2021/08/10 09:12:01;;;;;;;19.70;17.77;;;17.50;99.00;;;;;;5048891;28;20405;-68
2021/08/10 09:14:44;;;;;;;22.53;16.67;;;17.60;99.00;;;;;;5047737;28;20069;-68
2021/08/10 09:17:13;;;;;;;21.03;14.47;;;17.70;99.00;;;;;;5047596;28;20458;-69
2021/08/10 09:19:48;;;;;;;17.87;13.13;;;17.80;98.80;;;;;;5047461;28;20056;-68
2021/08/10 09:22:24;;;;;;;19.50;13.90;;;17.90;98.50;;;;;;5047397;28;20045;-68
2021/08/10 09:24:52;;;;;;;15.10;11.77;;;18.00;98.30;;;;;;5048133;28;20053;-68
2021/08/10 09:27:31;;;;;;;15.33;11.57;;;18.30;98.60;;;;;;5047367;28;20053;-69
2021/08/10 09:29:58;;;;;;;13.13;11.13;;;18.60;98.60;;;;;;5047592;28;20053;-69
2021/08/10 09:32:24;;;;;;;14.33;9.93;;;18.90;98.90;;;;;;5047968;28;20126;-69
2021/08/10 09:35:17;;;;;;;10.80;8.40;;;19.40;98.80;;;;;;5047140;28;20053;-69
2021/08/10 09:38:09;;;;;;;11.70;7.97;;;19.50;97.30;;;;;;5047422;28;20049;-69
2021/08/10 09:40:44;;;;;;;13.30;8.20;;;19.50;96.00;;;;;;5047733;28;20080;-68
2021/08/10 09:43:29;;;;;;;10.80;8.00;;;19.40;96.50;;;;;;5046585;28;20094;-68
2021/08/10 09:46:03;;;;;;;9.97;7.33;;;19.30;95.30;;;;;;5048393;28;20049;-69
2021/08/10 09:48:29;;;;;;;10.25;6.20;;;19.30;94.80;;;;;;5046752;28;20049;-68
2021/08/10 09:51:12;;;;;;;9.47;5.83;;;19.40;94.80;;;;;;5048011;28;20060;-68
2021/08/10 09:53:39;;;;;;;6.47;4.50;;;19.60;93.50;;;;;;5047834;28;20616;-68
2021/08/10 09:56:05;;;;;;;8.30;5.13;;;19.70;92.90;;;;;;5047273;28;20048;-68
2021/08/10 09:58:51;;;;;;;8.80;4.67;;;19.70;92.70;;;;;;5047550;28;20056;-68
2021/08/10 10:01:35;;;;;;;9.80;4.57;;;19.60;92.20;;;;;;5047110;28;20167;-68
2021/08/10 10:04:08;;;;;;;8.47;5.53;;;19.50;91.50;;;;;;5046314;28;20098;-67
2021/08/10 10:06:39;;;;;;;10.53;5.77;;;19.40;91.90;;;;;;5047652;28;20548;-67
2021/08/10 10:09:05;;;;;;;8.73;4.63;;;19.40;92.30;;;;;;5047938;28;20045;-66
2021/08/10 10:11:33;;;;;;;10.10;4.70;;;19.40;91.50;;;;;;5046848;28;20755;-66
2021/08/10 10:14:00;;;;;;;9.30;4.27;;;19.30;91.10;;;;;;5047201;28;20065;-66
2021/08/10 10:16:30;;;;;;;7.57;4.20;;;19.20;91.10;;;;;;5047186;28;20182;-66
2021/08/10 10:19:09;;;;;;;7.35;4.22;;;19.20;91.10;;;;;;5047986;28;20143;-66
2021/08/10 10:21:36;;;;;;;9.97;4.77;;;19.10;91.00;;;;;;5047416;28;20041;-66
2021/08/10 10:24:03;;;;;;;8.17;4.00;;;19.10;91.40;;;;;;5046038;28;20102;-67
2021/08/10 10:26:37;;;;;;;7.60;4.80;;;19.10;91.40;;;;;;5047644;28;20045;-68
2021/08/10 10:29:03;;;;;;;10.47;5.07;;;19.00;91.10;;;;;;5047315;28;20574;-68
2021/08/10 10:31:31;;;;;;;8.67;4.97;;;19.10;91.30;;;;;;5046907;28;20048;-66
2021/08/10 10:33:58;;;;;;;9.83;4.93;;;19.10;91.30;;;;;;5047380;28;20076;-67
2021/08/10 10:36:24;;;;;;;10.43;5.33;;;19.10;91.10;;;;;;5047722;28;20355;-67
2021/08/10 10:38:54;;;;;;;8.60;4.83;;;19.00;91.10;;;;;;5046577;28;20052;-67
2021/08/10 10:41:21;;;;;;;11.53;5.50;;;19.00;91.00;;;;;;5048040;28;20232;-66
2021/08/10 10:43:51;;;;;;;8.20;5.13;;;18.90;91.10;;;;;;5051385;28;20688;-67
2021/08/10 10:46:32;;;;;;;11.17;5.77;;;18.80;91.20;;;;;;5050714;28;20098;-67
2021/08/10 10:49:02;;;;;;;9.80;5.60;;;18.90;91.40;;;;;;5050944;28;20056;-66
2021/08/10 10:51:38;;;;;;;7.35;4.75;;;18.90;91.60;;;;;;5050674;28;20107;-66
2021/08/10 10:54:25;;;;;;;10.23;4.80;;;18.90;91.50;;;;;;5050712;28;20558;-66
2021/08/10 10:57:02;;;;;;;8.50;4.70;;;18.90;91.00;;;;;;5051310;28;20072;-66
2021/08/10 10:59:34;;;;;;;10.20;4.97;;;18.90;91.10;;;;;;5050451;28;20375;-67
2021/08/10 11:02:22;;;;;;;6.73;3.43;;;19.00;91.10;;;;;;5050468;28;20099;-67
2021/08/10 11:05:21;;;;;;;5.67;3.43;;;19.20;90.50;;;;;;5050389;28;20179;-67
2021/08/10 11:07:53;;;;;;;8.53;3.63;;;19.40;88.40;;;;;;5042615;28;20126;-67
2021/08/10 11:10:40;;;;;;;5.53;3.10;;;19.60;88.70;;;;;;5050584;28;20143;-67
2021/08/10 11:13:38;;;;;;;8.63;3.20;;;19.80;86.60;;;;;;5049958;28;20486;-67
2021/08/10 11:16:04;;;;;;;5.73;3.60;;;20.10;86.70;;;;;;5049694;28;20065;-67
2021/08/10 11:18:30;;;;;;;7.23;3.57;;;20.30;85.40;;;;;;5050170;28;20294;-66
2021/08/10 11:20:59;;;;;;;5.18;3.33;;;20.50;85.40;;;;;;5049467;28;20132;-67
2021/08/10 11:23:25;;;;;;;12.00;3.60;;;20.50;85.20;;;;;;5050416;28;20045;-67
2021/08/10 11:26:14;;;;;;;7.15;4.07;;;20.40;85.20;;;;;;5049906;28;20359;-69
2021/08/10 11:28:52;;;;;;;5.50;3.87;;;20.30;85.60;;;;;;5049076;28;20084;-67
2021/08/10 11:31:43;;;;;;;8.50;4.47;;;20.10;87.10;;;;;;5049186;28;20102;-68
2021/08/10 11:34:37;;;;;;;;;;;19.80;88.60;;;;;;5049838;28;20161;-67
2021/08/10 11:37:18;;;;;;;10.17;4.70;;;19.60;89.00;;;;;;5048033;28;19929;-68
2021/08/10 11:40:01;;;;;;;7.05;4.45;;;19.30;90.30;;;;;;5050263;28;20045;-67
2021/08/10 11:42:27;;;;;;;6.93;4.60;;;19.10;90.80;;;;;;5048614;28;20045;-67
2021/08/10 11:44:57;;;;;;;6.47;4.10;;;19.10;91.20;;;;;;5049299;28;20060;-67
2021/08/10 11:47:23;;;;;;;8.17;4.00;;;19.30;91.40;;;;;;5049484;28;20056;-67
2021/08/10 11:49:55;;;;;;;7.67;4.60;;;19.50;91.30;;;;;;5049352;28;20049;-67
2021/08/10 11:52:21;;;;;;;6.03;4.13;;;19.70;90.70;;;;;;5049406;28;20052;-68
2021/08/10 11:54:59;;;;;;;7.53;4.13;;;19.70;90.30;;;;;;5048758;28;20078;-68
2021/08/10 11:57:25;;;;;;;8.27;4.07;;;19.80;90.40;;;;;;5049672;28;20045;-68
2021/08/10 12:00:11;;;;;;;6.30;3.47;;;19.80;90.20;;;;;;5049563;28;20059;-69
2021/08/10 12:02:43;;;;;;;7.77;3.83;;;19.90;87.80;;;;;;5048982;28;20457;-69
2021/08/10 12:05:09;;;;;;;6.00;3.30;;;20.00;88.10;;;;;;5049141;28;20052;-69
2021/08/10 12:07:35;;;;;;;4.90;2.90;;;20.10;85.90;;;;;;5049207;28;20049;-68
2021/08/10 12:10:03;;;;;;;5.47;3.05;;;20.20;84.50;;;;;;5048606;28;20111;-68
2021/08/10 12:12:33;;;;;;;4.37;2.80;;;20.10;83.70;;;;;;5048980;28;20417;-65
2021/08/10 12:14:59;;;;;;;6.82;3.30;;;20.10;82.50;;;;;;5048866;28;20065;-66
2021/08/10 12:17:25;;;;;;;5.43;3.10;;;20.20;81.40;;;;;;5049085;28;20053;-66
2021/08/10 12:19:51;;;;;;;4.88;3.15;;;20.30;81.20;;;;;;5048916;28;20152;-65
2021/08/10 12:22:22;;;;;;;6.13;3.47;;;20.40;80.40;;;;;;5048623;28;20571;-66
2021/08/10 12:24:55;;;;;;;5.55;2.70;;;20.40;79.70;;;;;;5047691;28;20156;-66
2021/08/10 12:27:31;;;;;;;4.15;2.85;;;20.50;79.50;;;;;;5048845;28;20156;-66
2021/08/10 12:29:57;;;;;;;4.05;2.55;;;20.50;77.70;;;;;;5048942;28;20696;-67
2021/08/10 12:32:27;;;;;;;4.32;2.40;;;20.50;78.50;;;;;;5047948;28;20140;-67
2021/08/10 12:34:53;;;;;;;3.53;2.30;;;20.40;77.00;;;;;;5048514;28;20048;-66
2021/08/10 12:37:29;;;;;;;4.22;2.20;;;20.50;76.60;;;;;;5048191;28;20059;-69
2021/08/10 12:39:54;;;;;;;5.05;2.30;;;20.70;76.00;;;;;;5048945;28;20045;-67
2021/08/10 12:42:20;;;;;;;6.22;2.80;;;20.90;74.30;;;;;;5048373;28;20481;-67
2021/08/10 12:44:49;;;;;;;5.00;2.50;;;21.00;72.70;;;;;;5048006;28;20449;-67
2021/08/10 12:47:16;;;;;;;7.20;2.65;;;21.00;71.90;;;;;;5048799;28;20045;-66
2021/08/10 12:49:43;;;;;;;4.88;2.75;;;21.00;72.00;;;;;;5047893;28;20053;-66